sensor_id;sensor_type;location;lat;lon;timestamp;P1;durP1;ratioP1;P2;durP2;ratioP2
80295;SDS011;69597;42.124;24.722;2023-04-26T00:01:30;4.55;;;2.10;;
80295;SDS011;69597;42.124;24.722;2023-04-26T00:03:56;4.88;;;2.08;;
80295;SDS011;69597;42.124;24.722;2023-04-26T00:06:22;4.65;;;2.13;;
80295;SDS011;69597;42.124;24.722;2023-04-26T00:08:48;5.20;;;2.25;;
80295;SDS011;69597;42.124;24.722;2023-04-26T00:11:13;4.13;;;2.10;;
80295;SDS011;69597;42.124;24.722;2023-04-26T00:13:39;4.10;;;1.95;;
80295;SDS011;69597;42.124;24.722;2023-04-26T00:16:05;4.65;;;2.03;;
80295;SDS011;69597;42.124;24.722;2023-04-26T00:18:30;4.85;;;2.00;;
80295;SDS011;69597;42.124;24.722;2023-04-26T00:20:56;5.25;;;2.00;;
80295;SDS011;69597;42.124;24.722;2023-04-26T00:23:22;4.93;;;1.80;;
80295;SDS011;69597;42.124;24.722;2023-04-26T00:25:48;4.80;;;2.17;;
80295;SDS011;69597;42.124;24.722;2023-04-26T00:28:13;5.47;;;2.00;;
80295;SDS011;69597;42.124;24.722;2023-04-26T00:30:39;7.13;;;2.05;;
80295;SDS011;69597;42.124;24.722;2023-04-26T00:33:11;5.93;;;2.20;;
80295;SDS011;69597;42.124;24.722;2023-04-26T00:35:37;6.80;;;2.15;;
80295;SDS011;69597;42.124;24.722;2023-04-26T00:38:02;4.10;;;1.80;;
80295;SDS011;69597;42.124;24.722;2023-04-26T00:40:29;9.13;;;2.08;;
80295;SDS011;69597;42.124;24.722;2023-04-26T00:42:58;5.03;;;2.00;;
80295;SDS011;69597;42.124;24.722;2023-04-26T00:45:24;4.97;;;1.90;;
80295;SDS011;69597;42.124;24.722;2023-04-26T00:47:50;5.10;;;1.80;;
80295;SDS011;69597;42.124;24.722;2023-04-26T00:50:17;5.35;;;2.00;;
80295;SDS011;69597;42.124;24.722;2023-04-26T00:52:44;4.57;;;2.00;;
80295;SDS011;69597;42.124;24.722;2023-04-26T00:55:11;4.60;;;1.70;;
80295;SDS011;69597;42.124;24.722;2023-04-26T00:57:38;4.25;;;1.90;;
80295;SDS011;69597;42.124;24.722;2023-04-26T01:00:06;4.03;;;1.80;;
80295;SDS011;69597;42.124;24.722;2023-04-26T01:02:32;4.68;;;1.95;;
80295;SDS011;69597;42.124;24.722;2023-04-26T01:04:57;4.50;;;2.00;;
80295;SDS011;69597;42.124;24.722;2023-04-26T01:07:23;5.47;;;2.10;;
80295;SDS011;69597;42.124;24.722;2023-04-26T01:09:49;3.92;;;1.73;;
80295;SDS011;69597;42.124;24.722;2023-04-26T01:12:15;4.43;;;1.83;;
80295;SDS011;69597;42.124;24.722;2023-04-26T01:14:41;5.75;;;1.98;;
80295;SDS011;69597;42.124;24.722;2023-04-26T01:17:08;4.72;;;1.80;;
80295;SDS011;69597;42.124;24.722;2023-04-26T01:19:33;3.55;;;1.63;;
80295;SDS011;69597;42.124;24.722;2023-04-26T01:22:01;4.00;;;1.80;;
80295;SDS011;69597;42.124;24.722;2023-04-26T01:24:27;4.07;;;1.77;;
80295;SDS011;69597;42.124;24.722;2023-04-26T01:26:54;4.45;;;2.00;;
80295;SDS011;69597;42.124;24.722;2023-04-26T01:29:20;3.70;;;1.80;;
80295;SDS011;69597;42.124;24.722;2023-04-26T01:31:47;4.50;;;1.80;;
80295;SDS011;69597;42.124;24.722;2023-04-26T01:34:13;4.38;;;1.80;;
80295;SDS011;69597;42.124;24.722;2023-04-26T01:36:38;4.25;;;1.80;;
80295;SDS011;69597;42.124;24.722;2023-04-26T01:39:04;3.95;;;1.80;;
80295;SDS011;69597;42.124;24.722;2023-04-26T01:41:30;3.75;;;1.65;;
80295;SDS011;69597;42.124;24.722;2023-04-26T01:43:57;4.22;;;1.90;;
80295;SDS011;69597;42.124;24.722;2023-04-26T01:46:23;4.00;;;1.70;;
80295;SDS011;69597;42.124;24.722;2023-04-26T01:48:48;7.05;;;1.95;;
80295;SDS011;69597;42.124;24.722;2023-04-26T01:51:14;4.28;;;1.73;;
80295;SDS011;69597;42.124;24.722;2023-04-26T01:53:40;7.63;;;1.67;;
80295;SDS011;69597;42.124;24.722;2023-04-26T01:56:06;3.53;;;1.52;;
80295;SDS011;69597;42.124;24.722;2023-04-26T01:58:32;5.38;;;1.63;;
80295;SDS011;69597;42.124;24.722;2023-04-26T02:01:07;3.97;;;1.60;;
80295;SDS011;69597;42.124;24.722;2023-04-26T02:03:34;4.78;;;1.60;;
80295;SDS011;69597;42.124;24.722;2023-04-26T02:06:00;3.92;;;1.52;;
80295;SDS011;69597;42.124;24.722;2023-04-26T02:08:26;2.50;;;1.30;;
80295;SDS011;69597;42.124;24.722;2023-04-26T02:10:51;3.40;;;1.38;;
80295;SDS011;69597;42.124;24.722;2023-04-26T02:13:17;2.38;;;1.27;;
80295;SDS011;69597;42.124;24.722;2023-04-26T02:15:47;3.67;;;1.35;;
80295;SDS011;69597;42.124;24.722;2023-04-26T02:18:14;2.75;;;1.40;;
80295;SDS011;69597;42.124;24.722;2023-04-26T02:20:43;2.00;;;1.17;;
80295;SDS011;69597;42.124;24.722;2023-04-26T02:23:09;3.05;;;1.33;;
80295;SDS011;69597;42.124;24.722;2023-04-26T02:25:36;4.47;;;1.40;;
80295;SDS011;69597;42.124;24.722;2023-04-26T02:28:02;4.03;;;1.40;;
80295;SDS011;69597;42.124;24.722;2023-04-26T02:30:28;3.03;;;1.30;;
80295;SDS011;69597;42.124;24.722;2023-04-26T02:32:54;2.25;;;1.20;;
80295;SDS011;69597;42.124;24.722;2023-04-26T02:35:20;3.08;;;1.38;;
80295;SDS011;69597;42.124;24.722;2023-04-26T02:37:46;3.03;;;1.50;;
80295;SDS011;69597;42.124;24.722;2023-04-26T02:40:19;4.75;;;1.55;;
80295;SDS011;69597;42.124;24.722;2023-04-26T02:42:45;2.58;;;1.40;;
80295;SDS011;69597;42.124;24.722;2023-04-26T02:45:11;4.15;;;1.67;;
80295;SDS011;69597;42.124;24.722;2023-04-26T02:47:37;3.33;;;1.40;;
80295;SDS011;69597;42.124;24.722;2023-04-26T02:50:05;5.50;;;1.45;;
80295;SDS011;69597;42.124;24.722;2023-04-26T02:52:33;5.10;;;1.90;;
80295;SDS011;69597;42.124;24.722;2023-04-26T02:54:59;4.35;;;1.60;;
80295;SDS011;69597;42.124;24.722;2023-04-26T02:57:26;3.28;;;1.63;;
80295;SDS011;69597;42.124;24.722;2023-04-26T02:59:51;4.13;;;1.70;;
80295;SDS011;69597;42.124;24.722;2023-04-26T03:02:17;4.47;;;1.60;;
80295;SDS011;69597;42.124;24.722;2023-04-26T03:04:43;4.90;;;1.88;;
80295;SDS011;69597;42.124;24.722;2023-04-26T03:07:10;4.90;;;1.83;;
80295;SDS011;69597;42.124;24.722;2023-04-26T03:09:36;4.25;;;1.85;;
80295;SDS011;69597;42.124;24.722;2023-04-26T03:12:03;4.35;;;2.10;;
80295;SDS011;69597;42.124;24.722;2023-04-26T03:14:32;3.95;;;2.13;;
80295;SDS011;69597;42.124;24.722;2023-04-26T03:16:58;5.13;;;2.17;;
80295;SDS011;69597;42.124;24.722;2023-04-26T03:19:24;4.15;;;2.03;;
80295;SDS011;69597;42.124;24.722;2023-04-26T03:21:50;4.70;;;2.10;;
80295;SDS011;69597;42.124;24.722;2023-04-26T03:24:16;5.00;;;2.08;;
80295;SDS011;69597;42.124;24.722;2023-04-26T03:26:42;5.03;;;2.10;;
80295;SDS011;69597;42.124;24.722;2023-04-26T03:29:07;7.10;;;2.22;;
80295;SDS011;69597;42.124;24.722;2023-04-26T03:31:33;4.68;;;2.20;;
80295;SDS011;69597;42.124;24.722;2023-04-26T03:33:59;5.43;;;2.10;;
80295;SDS011;69597;42.124;24.722;2023-04-26T03:36:24;5.70;;;2.28;;
80295;SDS011;69597;42.124;24.722;2023-04-26T03:38:52;8.07;;;2.10;;
80295;SDS011;69597;42.124;24.722;2023-04-26T03:41:18;4.13;;;1.85;;
80295;SDS011;69597;42.124;24.722;2023-04-26T03:43:45;4.72;;;2.20;;
80295;SDS011;69597;42.124;24.722;2023-04-26T03:46:10;4.68;;;2.15;;
80295;SDS011;69597;42.124;24.722;2023-04-26T03:48:36;4.70;;;2.20;;
80295;SDS011;69597;42.124;24.722;2023-04-26T03:51:02;5.30;;;1.90;;
80295;SDS011;69597;42.124;24.722;2023-04-26T03:53:28;5.03;;;1.88;;
80295;SDS011;69597;42.124;24.722;2023-04-26T03:55:53;6.22;;;2.13;;
80295;SDS011;69597;42.124;24.722;2023-04-26T03:58:19;5.95;;;2.00;;
80295;SDS011;69597;42.124;24.722;2023-04-26T04:00:45;6.88;;;2.20;;
80295;SDS011;69597;42.124;24.722;2023-04-26T04:03:11;7.00;;;1.73;;
80295;SDS011;69597;42.124;24.722;2023-04-26T04:05:36;5.72;;;1.80;;
80295;SDS011;69597;42.124;24.722;2023-04-26T04:08:02;5.32;;;1.70;;
80295;SDS011;69597;42.124;24.722;2023-04-26T04:10:28;3.08;;;1.58;;
80295;SDS011;69597;42.124;24.722;2023-04-26T04:12:53;4.88;;;1.85;;
80295;SDS011;69597;42.124;24.722;2023-04-26T04:15:19;4.57;;;1.95;;
80295;SDS011;69597;42.124;24.722;2023-04-26T04:17:45;5.20;;;1.98;;
80295;SDS011;69597;42.124;24.722;2023-04-26T04:20:11;5.78;;;1.90;;
80295;SDS011;69597;42.124;24.722;2023-04-26T04:22:37;4.28;;;1.90;;
80295;SDS011;69597;42.124;24.722;2023-04-26T04:25:04;4.38;;;2.10;;
80295;SDS011;69597;42.124;24.722;2023-04-26T04:27:31;10.65;;;2.50;;
80295;SDS011;69597;42.124;24.722;2023-04-26T04:29:57;6.82;;;2.13;;
80295;SDS011;69597;42.124;24.722;2023-04-26T04:32:22;5.72;;;2.22;;
80295;SDS011;69597;42.124;24.722;2023-04-26T04:34:48;10.60;;;2.75;;
80295;SDS011;69597;42.124;24.722;2023-04-26T04:37:16;12.07;;;2.97;;
80295;SDS011;69597;42.124;24.722;2023-04-26T04:39:42;15.27;;;3.00;;
80295;SDS011;69597;42.124;24.722;2023-04-26T04:42:08;5.82;;;2.60;;
80295;SDS011;69597;42.124;24.722;2023-04-26T04:44:34;5.95;;;2.95;;
80295;SDS011;69597;42.124;24.722;2023-04-26T04:47:01;11.32;;;3.50;;
80295;SDS011;69597;42.124;24.722;2023-04-26T04:49:26;9.18;;;4.00;;
80295;SDS011;69597;42.124;24.722;2023-04-26T04:51:53;10.68;;;4.10;;
80295;SDS011;69597;42.124;24.722;2023-04-26T04:54:18;8.45;;;4.07;;
80295;SDS011;69597;42.124;24.722;2023-04-26T04:56:44;10.38;;;4.30;;
80295;SDS011;69597;42.124;24.722;2023-04-26T04:59:10;7.60;;;3.95;;
80295;SDS011;69597;42.124;24.722;2023-04-26T05:01:36;8.98;;;3.80;;
80295;SDS011;69597;42.124;24.722;2023-04-26T05:04:02;9.93;;;4.20;;
80295;SDS011;69597;42.124;24.722;2023-04-26T05:06:29;9.90;;;4.40;;
80295;SDS011;69597;42.124;24.722;2023-04-26T05:08:58;8.80;;;4.38;;
80295;SDS011;69597;42.124;24.722;2023-04-26T05:11:25;11.95;;;4.07;;
80295;SDS011;69597;42.124;24.722;2023-04-26T05:13:51;6.55;;;3.63;;
80295;SDS011;69597;42.124;24.722;2023-04-26T05:16:17;8.05;;;3.50;;
80295;SDS011;69597;42.124;24.722;2023-04-26T05:18:42;8.65;;;4.10;;
80295;SDS011;69597;42.124;24.722;2023-04-26T05:21:08;10.63;;;5.93;;
80295;SDS011;69597;42.124;24.722;2023-04-26T05:23:34;17.08;;;11.10;;
80295;SDS011;69597;42.124;24.722;2023-04-26T05:26:00;22.10;;;17.60;;
80295;SDS011;69597;42.124;24.722;2023-04-26T05:28:28;27.08;;;21.08;;
80295;SDS011;69597;42.124;24.722;2023-04-26T05:30:54;23.27;;;19.58;;
80295;SDS011;69597;42.124;24.722;2023-04-26T05:33:20;22.92;;;17.83;;
80295;SDS011;69597;42.124;24.722;2023-04-26T05:35:46;18.38;;;14.75;;
80295;SDS011;69597;42.124;24.722;2023-04-26T05:38:12;18.48;;;13.52;;
80295;SDS011;69597;42.124;24.722;2023-04-26T05:40:38;17.33;;;11.68;;
80295;SDS011;69597;42.124;24.722;2023-04-26T05:43:05;16.17;;;10.25;;
80295;SDS011;69597;42.124;24.722;2023-04-26T05:45:30;14.38;;;8.55;;
80295;SDS011;69597;42.124;24.722;2023-04-26T05:47:56;13.55;;;7.72;;
80295;SDS011;69597;42.124;24.722;2023-04-26T05:50:22;10.27;;;6.60;;
80295;SDS011;69597;42.124;24.722;2023-04-26T05:52:47;8.50;;;5.68;;
80295;SDS011;69597;42.124;24.722;2023-04-26T05:55:13;11.25;;;5.90;;
80295;SDS011;69597;42.124;24.722;2023-04-26T05:57:39;10.88;;;5.45;;
80295;SDS011;69597;42.124;24.722;2023-04-26T06:00:05;6.93;;;4.38;;
80295;SDS011;69597;42.124;24.722;2023-04-26T06:02:33;8.45;;;4.55;;
80295;SDS011;69597;42.124;24.722;2023-04-26T06:04:59;8.40;;;4.30;;
80295;SDS011;69597;42.124;24.722;2023-04-26T06:07:24;8.73;;;5.20;;
80295;SDS011;69597;42.124;24.722;2023-04-26T06:09:50;9.25;;;5.60;;
80295;SDS011;69597;42.124;24.722;2023-04-26T06:12:16;9.88;;;5.75;;
80295;SDS011;69597;42.124;24.722;2023-04-26T06:14:41;12.68;;;4.97;;
80295;SDS011;69597;42.124;24.722;2023-04-26T06:17:07;8.48;;;4.93;;
80295;SDS011;69597;42.124;24.722;2023-04-26T06:19:33;7.07;;;4.32;;
80295;SDS011;69597;42.124;24.722;2023-04-26T06:21:59;7.93;;;4.35;;
80295;SDS011;69597;42.124;24.722;2023-04-26T06:24:25;7.90;;;4.15;;
80295;SDS011;69597;42.124;24.722;2023-04-26T06:26:50;9.45;;;4.35;;
80295;SDS011;69597;42.124;24.722;2023-04-26T06:29:16;9.98;;;4.97;;
80295;SDS011;69597;42.124;24.722;2023-04-26T06:31:42;9.70;;;4.68;;
80295;SDS011;69597;42.124;24.722;2023-04-26T06:34:08;13.65;;;8.02;;
80295;SDS011;69597;42.124;24.722;2023-04-26T06:36:33;14.80;;;10.90;;
80295;SDS011;69597;42.124;24.722;2023-04-26T06:39:00;27.35;;;16.80;;
80295;SDS011;69597;42.124;24.722;2023-04-26T06:41:25;26.83;;;18.92;;
80295;SDS011;69597;42.124;24.722;2023-04-26T06:43:51;26.55;;;21.55;;
80295;SDS011;69597;42.124;24.722;2023-04-26T06:46:17;30.75;;;20.20;;
80295;SDS011;69597;42.124;24.722;2023-04-26T06:48:43;23.58;;;18.00;;
80295;SDS011;69597;42.124;24.722;2023-04-26T06:51:08;22.25;;;14.57;;
80295;SDS011;69597;42.124;24.722;2023-04-26T06:53:35;21.88;;;13.88;;
80295;SDS011;69597;42.124;24.722;2023-04-26T06:56:01;23.98;;;12.45;;
80295;SDS011;69597;42.124;24.722;2023-04-26T06:58:26;18.17;;;12.10;;
80295;SDS011;69597;42.124;24.722;2023-04-26T07:00:53;17.08;;;9.85;;
80295;SDS011;69597;42.124;24.722;2023-04-26T07:03:19;17.13;;;9.55;;
80295;SDS011;69597;42.124;24.722;2023-04-26T07:05:45;19.05;;;8.88;;
80295;SDS011;69597;42.124;24.722;2023-04-26T07:08:10;14.90;;;8.50;;
80295;SDS011;69597;42.124;24.722;2023-04-26T07:10:38;12.68;;;7.95;;
80295;SDS011;69597;42.124;24.722;2023-04-26T07:13:04;11.13;;;6.28;;
80295;SDS011;69597;42.124;24.722;2023-04-26T07:15:29;12.07;;;5.90;;
80295;SDS011;69597;42.124;24.722;2023-04-26T07:17:56;10.73;;;5.90;;
80295;SDS011;69597;42.124;24.722;2023-04-26T07:20:22;8.95;;;5.07;;
80295;SDS011;69597;42.124;24.722;2023-04-26T07:22:48;7.82;;;5.00;;
80295;SDS011;69597;42.124;24.722;2023-04-26T07:25:14;6.47;;;4.53;;
80295;SDS011;69597;42.124;24.722;2023-04-26T07:27:40;9.25;;;4.47;;
80295;SDS011;69597;42.124;24.722;2023-04-26T07:30:06;8.07;;;4.57;;
80295;SDS011;69597;42.124;24.722;2023-04-26T07:32:34;8.20;;;4.50;;
80295;SDS011;69597;42.124;24.722;2023-04-26T07:35:00;7.75;;;4.70;;
80295;SDS011;69597;42.124;24.722;2023-04-26T07:37:31;7.90;;;4.57;;
80295;SDS011;69597;42.124;24.722;2023-04-26T07:39:57;8.43;;;4.80;;
80295;SDS011;69597;42.124;24.722;2023-04-26T07:42:23;8.10;;;4.60;;
80295;SDS011;69597;42.124;24.722;2023-04-26T07:44:49;7.13;;;4.10;;
80295;SDS011;69597;42.124;24.722;2023-04-26T07:47:15;9.68;;;4.43;;
80295;SDS011;69597;42.124;24.722;2023-04-26T07:49:40;8.75;;;4.57;;
80295;SDS011;69597;42.124;24.722;2023-04-26T07:52:09;12.85;;;4.10;;
80295;SDS011;69597;42.124;24.722;2023-04-26T07:54:35;8.63;;;4.22;;
80295;SDS011;69597;42.124;24.722;2023-04-26T07:57:01;8.75;;;4.40;;
80295;SDS011;69597;42.124;24.722;2023-04-26T07:59:27;8.82;;;4.40;;
80295;SDS011;69597;42.124;24.722;2023-04-26T08:01:52;8.73;;;4.32;;
80295;SDS011;69597;42.124;24.722;2023-04-26T08:04:28;9.20;;;4.20;;
80295;SDS011;69597;42.124;24.722;2023-04-26T08:06:56;7.32;;;4.07;;
80295;SDS011;69597;42.124;24.722;2023-04-26T08:09:22;7.43;;;4.32;;
80295;SDS011;69597;42.124;24.722;2023-04-26T08:11:48;7.57;;;3.67;;
80295;SDS011;69597;42.124;24.722;2023-04-26T08:14:14;7.80;;;4.10;;
80295;SDS011;69597;42.124;24.722;2023-04-26T08:16:39;7.80;;;4.00;;
80295;SDS011;69597;42.124;24.722;2023-04-26T08:19:05;8.02;;;4.20;;
80295;SDS011;69597;42.124;24.722;2023-04-26T08:21:31;7.10;;;4.05;;
80295;SDS011;69597;42.124;24.722;2023-04-26T08:23:57;6.78;;;4.15;;
80295;SDS011;69597;42.124;24.722;2023-04-26T08:26:22;7.72;;;4.07;;
80295;SDS011;69597;42.124;24.722;2023-04-26T08:28:48;7.05;;;4.00;;
80295;SDS011;69597;42.124;24.722;2023-04-26T08:31:14;7.15;;;4.15;;
80295;SDS011;69597;42.124;24.722;2023-04-26T08:33:39;6.93;;;3.85;;
80295;SDS011;69597;42.124;24.722;2023-04-26T08:36:05;6.22;;;4.22;;
80295;SDS011;69597;42.124;24.722;2023-04-26T08:38:31;7.22;;;4.00;;
80295;SDS011;69597;42.124;24.722;2023-04-26T08:40:57;7.72;;;4.15;;
80295;SDS011;69597;42.124;24.722;2023-04-26T08:43:27;7.57;;;3.80;;
80295;SDS011;69597;42.124;24.722;2023-04-26T08:45:54;8.47;;;3.90;;
80295;SDS011;69597;42.124;24.722;2023-04-26T08:48:20;6.63;;;3.70;;
80295;SDS011;69597;42.124;24.722;2023-04-26T08:50:47;7.35;;;3.97;;
80295;SDS011;69597;42.124;24.722;2023-04-26T08:53:14;7.40;;;3.70;;
80295;SDS011;69597;42.124;24.722;2023-04-26T08:55:47;6.60;;;3.92;;
80295;SDS011;69597;42.124;24.722;2023-04-26T08:58:13;7.03;;;3.80;;
80295;SDS011;69597;42.124;24.722;2023-04-26T09:00:41;6.78;;;3.90;;
80295;SDS011;69597;42.124;24.722;2023-04-26T09:03:09;6.88;;;3.63;;
80295;SDS011;69597;42.124;24.722;2023-04-26T09:05:35;6.10;;;3.70;;
80295;SDS011;69597;42.124;24.722;2023-04-26T09:10:31;6.55;;;4.25;;
80295;SDS011;69597;42.124;24.722;2023-04-26T09:12:57;6.63;;;4.10;;
80295;SDS011;69597;42.124;24.722;2023-04-26T09:15:23;8.30;;;3.88;;
80295;SDS011;69597;42.124;24.722;2023-04-26T09:17:51;6.32;;;4.03;;
80295;SDS011;69597;42.124;24.722;2023-04-26T09:20:18;6.72;;;4.07;;
80295;SDS011;69597;42.124;24.722;2023-04-26T09:22:46;8.48;;;4.10;;
80295;SDS011;69597;42.124;24.722;2023-04-26T09:25:15;6.10;;;4.00;;
80295;SDS011;69597;42.124;24.722;2023-04-26T09:27:43;6.75;;;3.75;;
80295;SDS011;69597;42.124;24.722;2023-04-26T09:30:10;6.15;;;3.55;;
80295;SDS011;69597;42.124;24.722;2023-04-26T09:35:31;7.10;;;3.90;;
80295;SDS011;69597;42.124;24.722;2023-04-26T09:38:04;6.35;;;3.67;;
80295;SDS011;69597;42.124;24.722;2023-04-26T09:40:37;6.47;;;3.95;;
80295;SDS011;69597;42.124;24.722;2023-04-26T09:43:08;6.30;;;3.80;;
80295;SDS011;69597;42.124;24.722;2023-04-26T09:45:47;6.40;;;4.00;;
80295;SDS011;69597;42.124;24.722;2023-04-26T09:48:22;5.50;;;3.40;;
80295;SDS011;69597;42.124;24.722;2023-04-26T09:50:57;5.57;;;3.67;;
80295;SDS011;69597;42.124;24.722;2023-04-26T09:53:36;5.60;;;3.50;;
80295;SDS011;69597;42.124;24.722;2023-04-26T09:56:13;5.63;;;3.70;;
80295;SDS011;69597;42.124;24.722;2023-04-26T10:01:15;6.15;;;3.83;;
80295;SDS011;69597;42.124;24.722;2023-04-26T10:03:42;6.63;;;3.70;;
80295;SDS011;69597;42.124;24.722;2023-04-26T10:06:08;5.95;;;3.60;;
80295;SDS011;69597;42.124;24.722;2023-04-26T10:08:34;5.22;;;3.22;;
80295;SDS011;69597;42.124;24.722;2023-04-26T10:11:02;5.90;;;3.70;;
80295;SDS011;69597;42.124;24.722;2023-04-26T10:13:33;6.57;;;3.63;;
80295;SDS011;69597;42.124;24.722;2023-04-26T10:15:59;6.43;;;3.58;;
80295;SDS011;69597;42.124;24.722;2023-04-26T10:18:26;6.22;;;3.70;;
80295;SDS011;69597;42.124;24.722;2023-04-26T10:20:52;5.88;;;3.60;;
80295;SDS011;69597;42.124;24.722;2023-04-26T10:23:22;5.72;;;3.50;;
80295;SDS011;69597;42.124;24.722;2023-04-26T10:25:51;6.75;;;3.38;;
80295;SDS011;69597;42.124;24.722;2023-04-26T10:28:52;6.75;;;3.65;;
80295;SDS011;69597;42.124;24.722;2023-04-26T10:31:04;5.88;;;3.50;;
80295;SDS011;69597;42.124;24.722;2023-04-26T10:33:32;5.90;;;3.33;;
80295;SDS011;69597;42.124;24.722;2023-04-26T10:35:59;5.53;;;3.42;;
80295;SDS011;69597;42.124;24.722;2023-04-26T10:38:29;6.55;;;3.40;;
80295;SDS011;69597;42.124;24.722;2023-04-26T10:41:04;6.55;;;3.60;;
80295;SDS011;69597;42.124;24.722;2023-04-26T10:47:04;6.32;;;3.60;;
80295;SDS011;69597;42.124;24.722;2023-04-26T10:49:48;6.10;;;3.47;;
80295;SDS011;69597;42.124;24.722;2023-04-26T10:52:14;7.10;;;3.50;;
80295;SDS011;69597;42.124;24.722;2023-04-26T10:54:51;6.18;;;3.65;;
80295;SDS011;69597;42.124;24.722;2023-04-26T10:57:17;6.30;;;3.70;;
80295;SDS011;69597;42.124;24.722;2023-04-26T11:00:52;5.95;;;3.60;;
80295;SDS011;69597;42.124;24.722;2023-04-26T11:02:52;6.40;;;3.30;;
80295;SDS011;69597;42.124;24.722;2023-04-26T11:05:37;5.80;;;3.85;;
80295;SDS011;69597;42.124;24.722;2023-04-26T11:08:16;5.43;;;3.40;;
80295;SDS011;69597;42.124;24.722;2023-04-26T11:10:45;5.88;;;3.50;;
80295;SDS011;69597;42.124;24.722;2023-04-26T11:13:35;5.40;;;3.40;;
80295;SDS011;69597;42.124;24.722;2023-04-26T11:16:08;6.63;;;3.80;;
80295;SDS011;69597;42.124;24.722;2023-04-26T11:18:36;6.72;;;3.42;;
80295;SDS011;69597;42.124;24.722;2023-04-26T11:21:04;5.30;;;3.30;;
80295;SDS011;69597;42.124;24.722;2023-04-26T11:23:33;6.38;;;3.63;;
80295;SDS011;69597;42.124;24.722;2023-04-26T11:26:00;5.53;;;3.60;;
80295;SDS011;69597;42.124;24.722;2023-04-26T11:28:32;5.13;;;3.50;;
80295;SDS011;69597;42.124;24.722;2023-04-26T11:30:58;5.80;;;3.20;;
80295;SDS011;69597;42.124;24.722;2023-04-26T11:33:25;5.50;;;3.40;;
80295;SDS011;69597;42.124;24.722;2023-04-26T11:35:51;6.53;;;3.50;;
80295;SDS011;69597;42.124;24.722;2023-04-26T11:38:21;5.40;;;3.50;;
80295;SDS011;69597;42.124;24.722;2023-04-26T11:40:57;5.50;;;3.20;;
80295;SDS011;69597;42.124;24.722;2023-04-26T11:46:03;5.22;;;3.25;;
80295;SDS011;69597;42.124;24.722;2023-04-26T11:50:57;5.20;;;3.50;;
80295;SDS011;69597;42.124;24.722;2023-04-26T11:53:27;5.35;;;3.30;;
80295;SDS011;69597;42.124;24.722;2023-04-26T11:56:00;5.20;;;3.35;;
80295;SDS011;69597;42.124;24.722;2023-04-26T11:58:26;7.20;;;3.63;;
80295;SDS011;69597;42.124;24.722;2023-04-26T12:00:55;6.15;;;3.28;;
80295;SDS011;69597;42.124;24.722;2023-04-26T12:03:22;5.72;;;3.50;;
80295;SDS011;69597;42.124;24.722;2023-04-26T12:05:54;6.10;;;3.67;;
80295;SDS011;69597;42.124;24.722;2023-04-26T12:08:24;6.50;;;3.45;;
80295;SDS011;69597;42.124;24.722;2023-04-26T12:10:51;5.50;;;3.38;;
80295;SDS011;69597;42.124;24.722;2023-04-26T12:13:19;5.63;;;3.40;;
80295;SDS011;69597;42.124;24.722;2023-04-26T12:15:45;6.78;;;3.53;;
80295;SDS011;69597;42.124;24.722;2023-04-26T12:18:15;5.47;;;3.35;;
80295;SDS011;69597;42.124;24.722;2023-04-26T12:20:42;5.72;;;3.67;;
80295;SDS011;69597;42.124;24.722;2023-04-26T12:23:09;5.10;;;3.20;;
80295;SDS011;69597;42.124;24.722;2023-04-26T12:25:37;5.53;;;3.30;;
80295;SDS011;69597;42.124;24.722;2023-04-26T12:28:05;5.57;;;3.47;;
80295;SDS011;69597;42.124;24.722;2023-04-26T12:30:36;4.90;;;3.00;;
80295;SDS011;69597;42.124;24.722;2023-04-26T12:33:03;5.72;;;3.15;;
80295;SDS011;69597;42.124;24.722;2023-04-26T12:35:29;5.55;;;3.30;;
80295;SDS011;69597;42.124;24.722;2023-04-26T12:37:55;5.32;;;3.50;;
80295;SDS011;69597;42.124;24.722;2023-04-26T12:40:24;5.15;;;3.15;;
80295;SDS011;69597;42.124;24.722;2023-04-26T12:42:50;4.53;;;2.90;;
80295;SDS011;69597;42.124;24.722;2023-04-26T12:45:16;6.18;;;3.05;;
80295;SDS011;69597;42.124;24.722;2023-04-26T12:47:43;5.72;;;3.20;;
80295;SDS011;69597;42.124;24.722;2023-04-26T12:50:10;6.30;;;3.30;;
80295;SDS011;69597;42.124;24.722;2023-04-26T12:52:40;5.82;;;3.20;;
80295;SDS011;69597;42.124;24.722;2023-04-26T12:55:07;5.32;;;3.10;;
80295;SDS011;69597;42.124;24.722;2023-04-26T12:57:35;5.07;;;3.13;;
80295;SDS011;69597;42.124;24.722;2023-04-26T13:00:02;4.80;;;3.10;;
80295;SDS011;69597;42.124;24.722;2023-04-26T13:02:29;4.80;;;3.17;;
80295;SDS011;69597;42.124;24.722;2023-04-26T13:04:54;5.32;;;3.30;;
80295;SDS011;69597;42.124;24.722;2023-04-26T13:07:23;6.15;;;3.30;;
80295;SDS011;69597;42.124;24.722;2023-04-26T13:09:51;5.28;;;3.38;;
80295;SDS011;69597;42.124;24.722;2023-04-26T13:12:17;6.00;;;3.42;;
80295;SDS011;69597;42.124;24.722;2023-04-26T13:14:42;5.70;;;2.90;;
80295;SDS011;69597;42.124;24.722;2023-04-26T13:17:08;5.35;;;3.15;;
80295;SDS011;69597;42.124;24.722;2023-04-26T13:19:35;5.05;;;3.38;;
80295;SDS011;69597;42.124;24.722;2023-04-26T13:22:01;5.18;;;3.28;;
80295;SDS011;69597;42.124;24.722;2023-04-26T13:24:28;5.22;;;3.20;;
80295;SDS011;69597;42.124;24.722;2023-04-26T13:27:09;5.07;;;3.13;;
80295;SDS011;69597;42.124;24.722;2023-04-26T13:29:35;5.35;;;3.15;;
80295;SDS011;69597;42.124;24.722;2023-04-26T13:32:01;5.13;;;3.30;;
80295;SDS011;69597;42.124;24.722;2023-04-26T13:34:28;4.95;;;3.13;;
80295;SDS011;69597;42.124;24.722;2023-04-26T13:37:00;5.15;;;3.17;;
80295;SDS011;69597;42.124;24.722;2023-04-26T13:39:27;5.25;;;3.30;;
80295;SDS011;69597;42.124;24.722;2023-04-26T13:41:53;5.93;;;2.97;;
80295;SDS011;69597;42.124;24.722;2023-04-26T13:44:19;5.05;;;3.25;;
80295;SDS011;69597;42.124;24.722;2023-04-26T13:46:47;4.82;;;3.15;;
80295;SDS011;69597;42.124;24.722;2023-04-26T13:49:13;5.00;;;3.20;;
80295;SDS011;69597;42.124;24.722;2023-04-26T13:51:39;4.80;;;3.05;;
80295;SDS011;69597;42.124;24.722;2023-04-26T13:54:05;4.75;;;2.90;;
80295;SDS011;69597;42.124;24.722;2023-04-26T13:56:31;4.82;;;3.20;;
80295;SDS011;69597;42.124;24.722;2023-04-26T13:58:58;5.05;;;2.80;;
80295;SDS011;69597;42.124;24.722;2023-04-26T14:01:29;5.85;;;3.00;;
80295;SDS011;69597;42.124;24.722;2023-04-26T14:03:57;5.53;;;3.30;;
80295;SDS011;69597;42.124;24.722;2023-04-26T14:06:23;4.80;;;2.80;;
80295;SDS011;69597;42.124;24.722;2023-04-26T14:08:48;5.05;;;2.97;;
80295;SDS011;69597;42.124;24.722;2023-04-26T14:11:14;14.05;;;4.00;;
80295;SDS011;69597;42.124;24.722;2023-04-26T14:13:40;8.85;;;3.78;;
80295;SDS011;69597;42.124;24.722;2023-04-26T14:16:05;7.38;;;3.20;;
80295;SDS011;69597;42.124;24.722;2023-04-26T14:18:32;10.30;;;3.42;;
80295;SDS011;69597;42.124;24.722;2023-04-26T14:20:58;5.40;;;3.00;;
80295;SDS011;69597;42.124;24.722;2023-04-26T14:23:24;6.07;;;3.10;;
80295;SDS011;69597;42.124;24.722;2023-04-26T14:25:50;5.93;;;3.53;;
80295;SDS011;69597;42.124;24.722;2023-04-26T14:28:18;6.40;;;3.10;;
80295;SDS011;69597;42.124;24.722;2023-04-26T14:30:44;9.10;;;3.20;;
80295;SDS011;69597;42.124;24.722;2023-04-26T14:33:10;8.80;;;3.20;;
80295;SDS011;69597;42.124;24.722;2023-04-26T14:35:37;7.65;;;3.15;;
80295;SDS011;69597;42.124;24.722;2023-04-26T14:38:03;6.60;;;3.28;;
80295;SDS011;69597;42.124;24.722;2023-04-26T14:40:28;6.30;;;3.58;;
80295;SDS011;69597;42.124;24.722;2023-04-26T14:42:54;6.93;;;3.45;;
80295;SDS011;69597;42.124;24.722;2023-04-26T14:45:20;5.40;;;3.10;;
80295;SDS011;69597;42.124;24.722;2023-04-26T14:47:46;6.35;;;3.17;;
80295;SDS011;69597;42.124;24.722;2023-04-26T14:50:11;6.38;;;3.30;;